PRSAU SBTC-SBSG
Flight info
| Callsign | PRSAU |
|---|---|
| Flight time | 1h 36m |
| Altitude | 39000 |
| Route | DAKEN UZ42 ANBEX DCT SAFUC |
| Aircraft | E190/M-SDE3GILORVW/S |
Departure
| Time | 2026-05-06 20:46 |
|---|---|
| Airport | Una-Comandatuba Airport (SBTC) |
Arrival
| Time | 2026-05-06 22:22 |
|---|---|
| Airport | Rio Grande do Norte/São Gonçalo do Amarante–Governador Aluízio Alves International Airport (SBSG) |
| Time | Latitude | Longitude | Altitude | Speed | Heading |
|---|---|---|---|---|---|
| 2026-05-06 20:28 | -15.35697 | -38.99617 | 21 ft | 0 kts | 84° |
| 2026-05-06 20:38 | -15.35698 | -38.99623 | 21 ft | 2 kts | 73° |
| 2026-05-06 20:39 | -15.35706 | -38.99636 | 21 ft | 2 kts | 39° |
| 2026-05-06 20:39 | -15.35719 | -38.99643 | 21 ft | 2 kts | 9° |
| 2026-05-06 20:39 | -15.35734 | -38.99642 | 21 ft | 1 kts | 348° |
| 2026-05-06 20:39 | -15.35739 | -38.99641 | 21 ft | 0 kts | 353° |
| 2026-05-06 20:42 | -15.35737 | -38.99641 | 21 ft | 0 kts | 353° |
| 2026-05-06 20:42 | -15.35725 | -38.99646 | 21 ft | 3 kts | 326° |
| 2026-05-06 20:42 | -15.35717 | -38.99680 | 21 ft | 6 kts | 264° |
| 2026-05-06 20:42 | -15.35723 | -38.99736 | 21 ft | 8 kts | 263° |
| 2026-05-06 20:43 | -15.35730 | -38.99804 | 21 ft | 10 kts | 269° |
| 2026-05-06 20:43 | -15.35679 | -38.99845 | 20 ft | 11 kts | 352° |
| 2026-05-06 20:43 | -15.35590 | -38.99856 | 20 ft | 14 kts | 354° |
| 2026-05-06 20:43 | -15.35474 | -38.99868 | 21 ft | 18 kts | 353° |
| 2026-05-06 20:44 | -15.35339 | -38.99883 | 23 ft | 20 kts | 355° |
| 2026-05-06 20:44 | -15.35185 | -38.99899 | 24 ft | 23 kts | 355° |
| 2026-05-06 20:44 | -15.35018 | -38.99920 | 24 ft | 24 kts | 354° |
| 2026-05-06 20:44 | -15.34845 | -38.99937 | 24 ft | 25 kts | 354° |
| 2026-05-06 20:45 | -15.34719 | -38.99950 | 24 ft | 11 kts | 353° |
| 2026-05-06 20:45 | -15.34651 | -38.99958 | 24 ft | 8 kts | 354° |
| 2026-05-06 20:45 | -15.34601 | -38.99979 | 24 ft | 4 kts | 10° |
| 2026-05-06 20:45 | -15.34616 | -38.99964 | 24 ft | 5 kts | 168° |
| 2026-05-06 20:46 | -15.34678 | -38.99955 | 24 ft | 20 kts | 173° |
| 2026-05-06 20:46 | -15.35176 | -38.99902 | 24 ft | 119 kts | 173° |
| 2026-05-06 20:46 | -15.36231 | -38.99794 | 313 ft | 169 kts | 172° |
| 2026-05-06 20:46 | -15.37474 | -38.99726 | 1032 ft | 192 kts | 176° |
| 2026-05-06 20:47 | -15.38839 | -38.99654 | 1917 ft | 202 kts | 171° |
| 2026-05-06 20:47 | -15.40248 | -38.99454 | 2812 ft | 213 kts | 158° |
| 2026-05-06 20:47 | -15.41339 | -38.98509 | 3885 ft | 210 kts | 114° |
| 2026-05-06 20:47 | -15.41437 | -38.97082 | 5001 ft | 209 kts | 71° |
| 2026-05-06 20:48 | -15.40507 | -38.95974 | 6051 ft | 216 kts | 28° |
| 2026-05-06 20:48 | -15.39033 | -38.95726 | 7012 ft | 224 kts | 5° |
| 2026-05-06 20:48 | -15.37479 | -38.95661 | 7946 ft | 225 kts | 8° |
| 2026-05-06 20:48 | -15.35929 | -38.95513 | 8824 ft | 228 kts | 11° |
| 2026-05-06 20:49 | -15.34352 | -38.95315 | 9700 ft | 230 kts | 12° |
| 2026-05-06 20:49 | -15.32771 | -38.95089 | 10514 ft | 234 kts | 12° |
| 2026-05-06 20:49 | -15.31156 | -38.94843 | 11303 ft | 238 kts | 12° |
| 2026-05-06 20:49 | -15.29520 | -38.94586 | 12074 ft | 242 kts | 12° |
| 2026-05-06 20:50 | -15.27844 | -38.94318 | 12856 ft | 246 kts | 12° |
| 2026-05-06 20:50 | -15.26160 | -38.94046 | 13615 ft | 249 kts | 12° |
| 2026-05-06 20:50 | -15.24430 | -38.93766 | 14365 ft | 253 kts | 11° |
| 2026-05-06 20:50 | -15.22699 | -38.93486 | 15091 ft | 257 kts | 11° |
| 2026-05-06 20:51 | -15.20917 | -38.93196 | 15824 ft | 260 kts | 11° |
| 2026-05-06 20:51 | -15.19137 | -38.92907 | 16538 ft | 263 kts | 10° |
| 2026-05-06 20:51 | -15.17319 | -38.92601 | 17239 ft | 266 kts | 15° |
| 2026-05-06 20:51 | -15.15610 | -38.91836 | 17904 ft | 268 kts | 28° |
| 2026-05-06 20:52 | -15.13958 | -38.90939 | 18554 ft | 273 kts | 28° |
| 2026-05-06 20:52 | -15.12245 | -38.90018 | 19179 ft | 279 kts | 28° |
| 2026-05-06 20:52 | -15.10526 | -38.89096 | 19809 ft | 283 kts | 28° |
| 2026-05-06 20:52 | -15.08750 | -38.88145 | 20441 ft | 288 kts | 28° |
| 2026-05-06 20:53 | -15.06971 | -38.87194 | 21045 ft | 293 kts | 28° |
| 2026-05-06 20:53 | -15.05142 | -38.86216 | 21654 ft | 297 kts | 28° |
| 2026-05-06 20:53 | -15.03317 | -38.85241 | 22266 ft | 300 kts | 28° |
| 2026-05-06 20:53 | -15.01449 | -38.84243 | 22887 ft | 303 kts | 27° |
| 2026-05-06 20:54 | -14.99578 | -38.83244 | 23497 ft | 306 kts | 27° |
| 2026-05-06 20:54 | -14.97676 | -38.82228 | 24121 ft | 308 kts | 27° |
| 2026-05-06 20:54 | -14.95759 | -38.81205 | 24756 ft | 310 kts | 27° |
| 2026-05-06 20:54 | -14.93841 | -38.80181 | 25372 ft | 312 kts | 26° |
| 2026-05-06 20:55 | -14.91919 | -38.79155 | 25939 ft | 315 kts | 26° |
| 2026-05-06 20:55 | -14.89954 | -38.78107 | 26501 ft | 318 kts | 26° |
| 2026-05-06 20:55 | -14.87990 | -38.77059 | 27078 ft | 320 kts | 26° |
| 2026-05-06 20:55 | -14.86012 | -38.76004 | 27634 ft | 322 kts | 26° |
| 2026-05-06 20:56 | -14.83990 | -38.74926 | 28203 ft | 324 kts | 26° |
| 2026-05-06 20:56 | -14.81985 | -38.73857 | 28748 ft | 326 kts | 25° |
| 2026-05-06 20:56 | -14.79966 | -38.72781 | 29257 ft | 329 kts | 25° |
| 2026-05-06 20:56 | -14.77910 | -38.71687 | 29741 ft | 331 kts | 26° |
| 2026-05-06 20:57 | -14.75849 | -38.70588 | 30196 ft | 335 kts | 26° |
| 2026-05-06 20:57 | -14.73764 | -38.69478 | 30657 ft | 337 kts | 26° |
| 2026-05-06 20:57 | -14.71674 | -38.68365 | 31100 ft | 340 kts | 26° |
| 2026-05-06 20:57 | -14.69556 | -38.67237 | 31523 ft | 343 kts | 26° |
| 2026-05-06 20:58 | -14.67446 | -38.66114 | 31927 ft | 346 kts | 26° |
| 2026-05-06 20:58 | -14.65292 | -38.64968 | 32325 ft | 349 kts | 26° |
| 2026-05-06 20:58 | -14.63132 | -38.63818 | 32743 ft | 351 kts | 26° |
| 2026-05-06 20:58 | -14.60958 | -38.62662 | 33152 ft | 353 kts | 26° |
| 2026-05-06 20:59 | -14.58761 | -38.61493 | 33521 ft | 357 kts | 26° |
| 2026-05-06 20:59 | -14.56538 | -38.60312 | 33875 ft | 361 kts | 26° |
| 2026-05-06 20:59 | -14.54266 | -38.59104 | 34206 ft | 366 kts | 26° |
| 2026-05-06 20:59 | -14.52013 | -38.57906 | 34548 ft | 370 kts | 26° |
| 2026-05-06 21:00 | -14.49689 | -38.56672 | 34921 ft | 373 kts | 26° |
| 2026-05-06 21:00 | -14.47387 | -38.55449 | 35310 ft | 375 kts | 26° |
| 2026-05-06 21:00 | -14.45063 | -38.54214 | 35682 ft | 377 kts | 26° |
| 2026-05-06 21:00 | -14.42707 | -38.52964 | 36056 ft | 380 kts | 26° |
| 2026-05-06 21:01 | -14.40356 | -38.51716 | 36393 ft | 382 kts | 26° |
| 2026-05-06 21:01 | -14.37980 | -38.50455 | 36706 ft | 386 kts | 26° |
| 2026-05-06 21:01 | -14.35582 | -38.49183 | 37006 ft | 389 kts | 26° |
| 2026-05-06 21:01 | -14.33153 | -38.47894 | 37293 ft | 393 kts | 26° |
| 2026-05-06 21:02 | -14.30712 | -38.46600 | 37582 ft | 396 kts | 26° |
| 2026-05-06 21:02 | -14.28259 | -38.45300 | 37861 ft | 399 kts | 25° |
| 2026-05-06 21:02 | -14.25764 | -38.43977 | 38172 ft | 402 kts | 25° |
| 2026-05-06 21:02 | -14.23278 | -38.42660 | 38468 ft | 404 kts | 25° |
| 2026-05-06 21:03 | -14.20786 | -38.41340 | 38762 ft | 407 kts | 25° |
| 2026-05-06 21:03 | -14.18247 | -38.39994 | 39021 ft | 406 kts | 25° |
| 2026-05-06 21:03 | -14.15750 | -38.38672 | 39027 ft | 403 kts | 25° |
| 2026-05-06 21:04 | -14.10705 | -38.36002 | 39055 ft | 411 kts | 25° |
| 2026-05-06 21:04 | -14.05626 | -38.33315 | 39031 ft | 408 kts | 25° |
| 2026-05-06 21:05 | -14.00562 | -38.30637 | 39035 ft | 410 kts | 25° |
| 2026-05-06 21:05 | -13.95447 | -38.27935 | 39055 ft | 418 kts | 25° |
| 2026-05-06 21:06 | -13.90134 | -38.25128 | 39052 ft | 436 kts | 25° |
| 2026-05-06 21:06 | -13.84611 | -38.22212 | 39040 ft | 454 kts | 25° |
| 2026-05-06 21:07 | -13.78890 | -38.19193 | 39047 ft | 470 kts | 25° |
| 2026-05-06 21:07 | -13.72950 | -38.16061 | 39035 ft | 486 kts | 25° |
| 2026-05-06 21:08 | -13.66864 | -38.12852 | 39034 ft | 491 kts | 25° |
| 2026-05-06 21:08 | -13.60823 | -38.09670 | 39043 ft | 490 kts | 25° |
| 2026-05-06 21:09 | -13.54665 | -38.06429 | 39040 ft | 500 kts | 25° |
| 2026-05-06 21:09 | -13.48468 | -38.03168 | 39032 ft | 501 kts | 25° |
| 2026-05-06 21:10 | -13.42252 | -37.99899 | 39029 ft | 502 kts | 25° |
| 2026-05-06 21:10 | -13.36045 | -37.96637 | 39012 ft | 501 kts | 25° |
| 2026-05-06 21:11 | -13.29843 | -37.93380 | 39014 ft | 500 kts | 25° |
| 2026-05-06 21:11 | -13.23638 | -37.90123 | 39012 ft | 500 kts | 25° |
| 2026-05-06 21:12 | -13.17423 | -37.86862 | 39007 ft | 500 kts | 25° |
| 2026-05-06 21:12 | -13.11196 | -37.83597 | 39016 ft | 501 kts | 25° |
| 2026-05-06 21:13 | -13.04992 | -37.80346 | 39004 ft | 502 kts | 25° |
| 2026-05-06 21:13 | -12.98758 | -37.77081 | 39013 ft | 502 kts | 25° |
| 2026-05-06 21:14 | -12.92546 | -37.73830 | 39015 ft | 501 kts | 25° |
| 2026-05-06 21:14 | -12.86324 | -37.70575 | 39006 ft | 502 kts | 24° |
| 2026-05-06 21:15 | -12.80069 | -37.67305 | 39006 ft | 502 kts | 24° |
| 2026-05-06 21:15 | -12.73824 | -37.64042 | 39006 ft | 502 kts | 24° |
| 2026-05-06 21:16 | -12.67619 | -37.60801 | 39006 ft | 503 kts | 24° |
| 2026-05-06 21:16 | -12.61366 | -37.57537 | 39004 ft | 502 kts | 24° |
| 2026-05-06 21:17 | -12.55158 | -37.54299 | 39006 ft | 502 kts | 24° |
| 2026-05-06 21:17 | -12.48899 | -37.51035 | 39008 ft | 503 kts | 24° |
| 2026-05-06 21:18 | -12.42670 | -37.47789 | 39014 ft | 503 kts | 24° |
| 2026-05-06 21:18 | -12.36459 | -37.44555 | 39012 ft | 502 kts | 24° |
| 2026-05-06 21:19 | -12.30240 | -37.41317 | 39013 ft | 503 kts | 24° |
| 2026-05-06 21:19 | -12.23973 | -37.38057 | 39013 ft | 502 kts | 24° |
| 2026-05-06 21:20 | -12.17741 | -37.34817 | 39016 ft | 503 kts | 23° |
| 2026-05-06 21:20 | -12.11499 | -37.31572 | 39007 ft | 503 kts | 24° |
| 2026-05-06 21:21 | -12.05260 | -37.28331 | 39006 ft | 502 kts | 23° |
| 2026-05-06 21:21 | -11.99017 | -37.25090 | 39007 ft | 503 kts | 24° |
| 2026-05-06 21:22 | -11.92805 | -37.21867 | 39006 ft | 500 kts | 23° |
| 2026-05-06 21:22 | -11.86548 | -37.18622 | 39003 ft | 501 kts | 23° |
| 2026-05-06 21:23 | -11.80351 | -37.15410 | 39004 ft | 500 kts | 23° |
| 2026-05-06 21:23 | -11.74125 | -37.12184 | 39003 ft | 502 kts | 23° |
| 2026-05-06 21:24 | -11.67926 | -37.08974 | 39001 ft | 503 kts | 23° |
| 2026-05-06 21:24 | -11.61666 | -37.05734 | 39000 ft | 503 kts | 23° |
| 2026-05-06 21:25 | -11.55424 | -37.02507 | 38996 ft | 501 kts | 23° |
| 2026-05-06 21:25 | -11.49194 | -36.99291 | 38994 ft | 500 kts | 23° |
| 2026-05-06 21:26 | -11.42990 | -36.96089 | 38999 ft | 503 kts | 23° |
| 2026-05-06 21:26 | -11.36712 | -36.92851 | 38996 ft | 503 kts | 23° |
| 2026-05-06 21:27 | -11.30493 | -36.89645 | 38992 ft | 504 kts | 23° |
| 2026-05-06 21:27 | -11.24214 | -36.86409 | 38992 ft | 501 kts | 22° |
| 2026-05-06 21:28 | -11.17990 | -36.83203 | 38992 ft | 502 kts | 22° |
| 2026-05-06 21:28 | -11.11743 | -36.79987 | 38991 ft | 501 kts | 22° |
| 2026-05-06 21:29 | -11.05549 | -36.76800 | 38992 ft | 499 kts | 22° |
| 2026-05-06 21:29 | -10.99307 | -36.73590 | 38993 ft | 501 kts | 22° |
| 2026-05-06 21:30 | -10.93057 | -36.70378 | 38996 ft | 503 kts | 22° |
| 2026-05-06 21:30 | -10.86822 | -36.67174 | 38992 ft | 501 kts | 22° |
| 2026-05-06 21:31 | -10.80604 | -36.64003 | 38994 ft | 502 kts | 22° |
| 2026-05-06 21:31 | -10.74351 | -36.60853 | 38993 ft | 500 kts | 22° |
| 2026-05-06 21:32 | -10.68142 | -36.57726 | 38992 ft | 498 kts | 22° |
| 2026-05-06 21:32 | -10.58802 | -36.53025 | 38998 ft | 498 kts | 22° |
| 2026-05-06 21:33 | -10.52584 | -36.49897 | 38994 ft | 497 kts | 21° |
| 2026-05-06 21:33 | -10.46388 | -36.46782 | 38995 ft | 497 kts | 21° |
| 2026-05-06 21:34 | -10.40177 | -36.43660 | 39000 ft | 497 kts | 21° |
| 2026-05-06 21:34 | -10.33976 | -36.40544 | 39002 ft | 496 kts | 21° |
| 2026-05-06 21:35 | -10.27751 | -36.37419 | 39000 ft | 494 kts | 21° |
| 2026-05-06 21:35 | -10.21606 | -36.34334 | 38992 ft | 493 kts | 21° |
| 2026-05-06 21:36 | -10.15428 | -36.31235 | 38992 ft | 493 kts | 21° |
| 2026-05-06 21:36 | -10.09276 | -36.28150 | 38995 ft | 495 kts | 21° |
| 2026-05-06 21:37 | -10.03068 | -36.25038 | 38997 ft | 495 kts | 21° |
| 2026-05-06 21:37 | -9.96934 | -36.21964 | 38995 ft | 491 kts | 21° |
| 2026-05-06 21:38 | -9.90751 | -36.18868 | 39003 ft | 492 kts | 21° |
| 2026-05-06 21:38 | -9.84628 | -36.15802 | 39003 ft | 492 kts | 21° |
| 2026-05-06 21:39 | -9.78509 | -36.12740 | 39008 ft | 491 kts | 21° |
| 2026-05-06 21:39 | -9.72347 | -36.09657 | 39007 ft | 490 kts | 21° |
| 2026-05-06 21:40 | -9.66206 | -36.06587 | 39007 ft | 490 kts | 21° |
| 2026-05-06 21:40 | -9.60132 | -36.03551 | 39011 ft | 487 kts | 21° |
| 2026-05-06 21:41 | -9.54002 | -36.00489 | 39015 ft | 489 kts | 21° |
| 2026-05-06 21:41 | -9.47909 | -35.97445 | 39017 ft | 486 kts | 21° |
| 2026-05-06 21:42 | -9.41858 | -35.94425 | 39016 ft | 488 kts | 21° |
| 2026-05-06 21:42 | -9.35741 | -35.91373 | 39018 ft | 486 kts | 21° |
| 2026-05-06 21:43 | -9.29678 | -35.88348 | 39018 ft | 485 kts | 21° |
| 2026-05-06 21:43 | -9.23614 | -35.85325 | 39022 ft | 485 kts | 21° |
| 2026-05-06 21:44 | -9.17539 | -35.82296 | 39025 ft | 486 kts | 20° |
| 2026-05-06 21:44 | -9.11482 | -35.79278 | 39030 ft | 483 kts | 20° |
| 2026-05-06 21:45 | -9.05413 | -35.76255 | 39030 ft | 483 kts | 21° |
| 2026-05-06 21:45 | -8.99233 | -35.73683 | 39039 ft | 476 kts | 11° |
| 2026-05-06 21:46 | -8.92880 | -35.71759 | 39034 ft | 475 kts | 11° |
| 2026-05-06 21:46 | -8.86524 | -35.69829 | 39040 ft | 476 kts | 11° |
| 2026-05-06 21:47 | -8.80191 | -35.67907 | 39039 ft | 475 kts | 11° |
| 2026-05-06 21:47 | -8.73905 | -35.65999 | 39036 ft | 473 kts | 11° |
| 2026-05-06 21:48 | -8.70765 | -35.65045 | 39029 ft | 462 kts | 11° |
| 2026-05-06 21:48 | -8.67696 | -35.64114 | 39028 ft | 456 kts | 11° |
| 2026-05-06 21:48 | -8.61611 | -35.62270 | 39034 ft | 457 kts | 11° |
| 2026-05-06 21:49 | -8.55511 | -35.60421 | 39034 ft | 458 kts | 11° |
| 2026-05-06 21:49 | -8.49397 | -35.58567 | 39029 ft | 457 kts | 11° |
| 2026-05-06 21:50 | -8.43294 | -35.56719 | 39027 ft | 458 kts | 11° |
| 2026-05-06 21:50 | -8.37160 | -35.54861 | 39036 ft | 456 kts | 11° |
| 2026-05-06 21:51 | -8.31083 | -35.53021 | 39033 ft | 458 kts | 11° |
| 2026-05-06 21:51 | -8.24942 | -35.51163 | 39042 ft | 458 kts | 11° |
| 2026-05-06 21:52 | -8.18902 | -35.49334 | 39020 ft | 443 kts | 11° |
| 2026-05-06 21:52 | -8.13053 | -35.47566 | 39026 ft | 439 kts | 11° |
| 2026-05-06 21:53 | -8.10087 | -35.46669 | 38888 ft | 442 kts | 11° |
| 2026-05-06 21:53 | -8.07152 | -35.45782 | 38382 ft | 443 kts | 11° |
| 2026-05-06 21:53 | -8.04180 | -35.44883 | 37889 ft | 440 kts | 11° |
| 2026-05-06 21:53 | -8.01262 | -35.44001 | 37404 ft | 441 kts | 11° |
| 2026-05-06 21:54 | -7.98321 | -35.43112 | 36912 ft | 442 kts | 11° |
| 2026-05-06 21:54 | -7.95341 | -35.42212 | 36419 ft | 442 kts | 12° |
| 2026-05-06 21:54 | -7.92399 | -35.41323 | 35928 ft | 443 kts | 11° |
| 2026-05-06 21:54 | -7.89436 | -35.40428 | 35433 ft | 446 kts | 12° |
| 2026-05-06 21:55 | -7.86438 | -35.39523 | 34940 ft | 447 kts | 12° |
| 2026-05-06 21:55 | -7.83458 | -35.38623 | 34445 ft | 448 kts | 12° |
| 2026-05-06 21:55 | -7.80473 | -35.37721 | 33949 ft | 451 kts | 12° |
| 2026-05-06 21:55 | -7.77436 | -35.36804 | 33445 ft | 454 kts | 12° |
| 2026-05-06 21:56 | -7.74409 | -35.35891 | 32939 ft | 454 kts | 12° |
| 2026-05-06 21:56 | -7.71374 | -35.34975 | 32463 ft | 456 kts | 12° |
| 2026-05-06 21:56 | -7.68314 | -35.34052 | 31962 ft | 457 kts | 12° |
| 2026-05-06 21:56 | -7.65259 | -35.33130 | 31449 ft | 457 kts | 12° |
| 2026-05-06 21:57 | -7.62192 | -35.32204 | 30935 ft | 457 kts | 12° |
| 2026-05-06 21:57 | -7.59156 | -35.31289 | 30431 ft | 457 kts | 13° |
| 2026-05-06 21:57 | -7.56123 | -35.30374 | 29927 ft | 452 kts | 13° |
| 2026-05-06 21:57 | -7.53094 | -35.29460 | 29427 ft | 449 kts | 13° |
| 2026-05-06 21:58 | -7.50124 | -35.28565 | 28931 ft | 445 kts | 13° |
| 2026-05-06 21:58 | -7.47175 | -35.27676 | 28437 ft | 441 kts | 14° |
| 2026-05-06 21:58 | -7.44233 | -35.26789 | 27938 ft | 435 kts | 14° |
| 2026-05-06 21:58 | -7.41351 | -35.25920 | 27464 ft | 430 kts | 14° |
| 2026-05-06 21:59 | -7.38483 | -35.25056 | 26985 ft | 426 kts | 14° |
| 2026-05-06 21:59 | -7.35681 | -35.24212 | 26519 ft | 422 kts | 14° |
| 2026-05-06 21:59 | -7.32843 | -35.23357 | 26048 ft | 418 kts | 14° |
| 2026-05-06 21:59 | -7.30081 | -35.22525 | 25594 ft | 415 kts | 14° |
| 2026-05-06 22:00 | -7.27325 | -35.21695 | 25127 ft | 410 kts | 14° |
| 2026-05-06 22:00 | -7.24599 | -35.20874 | 24675 ft | 405 kts | 14° |
| 2026-05-06 22:00 | -7.21901 | -35.20062 | 24225 ft | 401 kts | 14° |
| 2026-05-06 22:00 | -7.19242 | -35.19261 | 23781 ft | 397 kts | 14° |
| 2026-05-06 22:01 | -7.16602 | -35.18467 | 23349 ft | 393 kts | 14° |
| 2026-05-06 22:01 | -7.14022 | -35.17690 | 22919 ft | 388 kts | 14° |
| 2026-05-06 22:01 | -7.11435 | -35.16912 | 22489 ft | 384 kts | 15° |
| 2026-05-06 22:01 | -7.08871 | -35.16140 | 22064 ft | 380 kts | 15° |
| 2026-05-06 22:02 | -7.06366 | -35.15387 | 21647 ft | 379 kts | 15° |
| 2026-05-06 22:02 | -7.03825 | -35.14622 | 21229 ft | 380 kts | 15° |
| 2026-05-06 22:02 | -7.01274 | -35.13855 | 20802 ft | 378 kts | 15° |
| 2026-05-06 22:02 | -6.98761 | -35.13099 | 20389 ft | 378 kts | 15° |
| 2026-05-06 22:03 | -6.96245 | -35.12342 | 19972 ft | 377 kts | 16° |
| 2026-05-06 22:03 | -6.93737 | -35.11588 | 19545 ft | 375 kts | 16° |
| 2026-05-06 22:03 | -6.91209 | -35.10877 | 19123 ft | 373 kts | 9° |
| 2026-05-06 22:03 | -6.88618 | -35.10955 | 18734 ft | 372 kts | 349° |
| 2026-05-06 22:04 | -6.86095 | -35.11486 | 18315 ft | 372 kts | 348° |
| 2026-05-06 22:04 | -6.83564 | -35.12039 | 17899 ft | 370 kts | 348° |
| 2026-05-06 22:04 | -6.81041 | -35.12594 | 17489 ft | 370 kts | 348° |
| 2026-05-06 22:04 | -6.78519 | -35.13151 | 17078 ft | 369 kts | 348° |
| 2026-05-06 22:05 | -6.76034 | -35.13700 | 16680 ft | 367 kts | 348° |
| 2026-05-06 22:05 | -6.73516 | -35.14256 | 16269 ft | 366 kts | 348° |
| 2026-05-06 22:05 | -6.71036 | -35.14804 | 15861 ft | 364 kts | 348° |
| 2026-05-06 22:05 | -6.68565 | -35.15350 | 15458 ft | 363 kts | 349° |
| 2026-05-06 22:06 | -6.66084 | -35.15898 | 15053 ft | 362 kts | 349° |
| 2026-05-06 22:06 | -6.63625 | -35.16441 | 14653 ft | 360 kts | 349° |
| 2026-05-06 22:06 | -6.61187 | -35.16980 | 14252 ft | 358 kts | 349° |
| 2026-05-06 22:06 | -6.58747 | -35.17518 | 13853 ft | 356 kts | 349° |
| 2026-05-06 22:07 | -6.56344 | -35.18049 | 13458 ft | 355 kts | 349° |
| 2026-05-06 22:07 | -6.53914 | -35.18586 | 13060 ft | 354 kts | 349° |
| 2026-05-06 22:07 | -6.51516 | -35.19115 | 12671 ft | 351 kts | 349° |
| 2026-05-06 22:07 | -6.49148 | -35.19638 | 12274 ft | 348 kts | 350° |
| 2026-05-06 22:08 | -6.46771 | -35.20163 | 11886 ft | 345 kts | 350° |
| 2026-05-06 22:08 | -6.44449 | -35.20675 | 11506 ft | 339 kts | 350° |
| 2026-05-06 22:08 | -6.42164 | -35.21180 | 11132 ft | 330 kts | 350° |
| 2026-05-06 22:08 | -6.39945 | -35.21670 | 10767 ft | 321 kts | 350° |
| 2026-05-06 22:09 | -6.37778 | -35.22148 | 10414 ft | 312 kts | 350° |
| 2026-05-06 22:09 | -6.35673 | -35.22612 | 10072 ft | 303 kts | 350° |
| 2026-05-06 22:09 | -6.33640 | -35.23061 | 9739 ft | 296 kts | 351° |
| 2026-05-06 22:09 | -6.31630 | -35.23505 | 9411 ft | 293 kts | 351° |
| 2026-05-06 22:10 | -6.29649 | -35.23943 | 9109 ft | 292 kts | 349° |
| 2026-05-06 22:10 | -6.27812 | -35.24852 | 8942 ft | 294 kts | 328° |
| 2026-05-06 22:10 | -6.26133 | -35.26047 | 8964 ft | 297 kts | 327° |
| 2026-05-06 22:10 | -6.24434 | -35.27266 | 8966 ft | 298 kts | 327° |
| 2026-05-06 22:11 | -6.22753 | -35.28474 | 8973 ft | 299 kts | 327° |
| 2026-05-06 22:11 | -6.21042 | -35.29705 | 8976 ft | 299 kts | 327° |
| 2026-05-06 22:11 | -6.19348 | -35.30925 | 8976 ft | 299 kts | 327° |
| 2026-05-06 22:11 | -6.17656 | -35.32144 | 8979 ft | 299 kts | 327° |
| 2026-05-06 22:12 | -6.15959 | -35.33366 | 8983 ft | 299 kts | 327° |
| 2026-05-06 22:12 | -6.14279 | -35.34577 | 8978 ft | 299 kts | 327° |
| 2026-05-06 22:12 | -6.12578 | -35.35801 | 8966 ft | 299 kts | 327° |
| 2026-05-06 22:12 | -6.10868 | -35.37033 | 8974 ft | 300 kts | 327° |
| 2026-05-06 22:13 | -6.09170 | -35.38255 | 8971 ft | 299 kts | 327° |
| 2026-05-06 22:13 | -6.07481 | -35.39471 | 8975 ft | 299 kts | 327° |
| 2026-05-06 22:13 | -6.05772 | -35.40702 | 8955 ft | 300 kts | 327° |
| 2026-05-06 22:13 | -6.04070 | -35.41927 | 8732 ft | 301 kts | 327° |
| 2026-05-06 22:14 | -6.02371 | -35.43150 | 8415 ft | 300 kts | 327° |
| 2026-05-06 22:14 | -6.00672 | -35.44373 | 8088 ft | 298 kts | 327° |
| 2026-05-06 22:14 | -5.98991 | -35.45583 | 7759 ft | 295 kts | 327° |
| 2026-05-06 22:14 | -5.97327 | -35.46780 | 7436 ft | 294 kts | 327° |
| 2026-05-06 22:15 | -5.95650 | -35.47951 | 7148 ft | 293 kts | 327° |
| 2026-05-06 22:15 | -5.93958 | -35.49126 | 6825 ft | 292 kts | 328° |
| 2026-05-06 22:15 | -5.92296 | -35.50279 | 6496 ft | 291 kts | 327° |
| 2026-05-06 22:15 | -5.90623 | -35.51441 | 6180 ft | 290 kts | 327° |
| 2026-05-06 22:16 | -5.88969 | -35.52589 | 5851 ft | 288 kts | 327° |
| 2026-05-06 22:16 | -5.87331 | -35.53734 | 5612 ft | 287 kts | 327° |
| 2026-05-06 22:16 | -5.85688 | -35.54890 | 5312 ft | 284 kts | 327° |
| 2026-05-06 22:16 | -5.83981 | -35.55775 | 4993 ft | 271 kts | 352° |
| 2026-05-06 22:17 | -5.82157 | -35.55746 | 4779 ft | 253 kts | 11° |
| 2026-05-06 22:17 | -5.80438 | -35.55500 | 4503 ft | 247 kts | 12° |
| 2026-05-06 22:17 | -5.78755 | -35.55244 | 4226 ft | 241 kts | 12° |
| 2026-05-06 22:17 | -5.77095 | -35.54984 | 3961 ft | 236 kts | 13° |
| 2026-05-06 22:18 | -5.75563 | -35.54528 | 3699 ft | 222 kts | 41° |
| 2026-05-06 22:18 | -5.74759 | -35.53359 | 3541 ft | 199 kts | 81° |
| 2026-05-06 22:18 | -5.74732 | -35.51996 | 3208 ft | 192 kts | 96° |
| 2026-05-06 22:18 | -5.74846 | -35.50686 | 2866 ft | 189 kts | 98° |
| 2026-05-06 22:19 | -5.74956 | -35.49388 | 2586 ft | 175 kts | 98° |
| 2026-05-06 22:19 | -5.75091 | -35.48267 | 2330 ft | 154 kts | 101° |
| 2026-05-06 22:19 | -5.75246 | -35.47236 | 2096 ft | 141 kts | 102° |
| 2026-05-06 22:19 | -5.75392 | -35.46317 | 1912 ft | 129 kts | 103° |
| 2026-05-06 22:20 | -5.75530 | -35.45473 | 1727 ft | 119 kts | 103° |
| 2026-05-06 22:20 | -5.75664 | -35.44654 | 1575 ft | 118 kts | 104° |
| 2026-05-06 22:20 | -5.75799 | -35.43838 | 1432 ft | 117 kts | 102° |
| 2026-05-06 22:20 | -5.75934 | -35.43023 | 1287 ft | 118 kts | 102° |
| 2026-05-06 22:21 | -5.76069 | -35.42196 | 1130 ft | 120 kts | 102° |
| 2026-05-06 22:21 | -5.76206 | -35.41366 | 974 ft | 122 kts | 102° |
| 2026-05-06 22:21 | -5.76344 | -35.40525 | 815 ft | 122 kts | 101° |
| 2026-05-06 22:21 | -5.76480 | -35.39671 | 651 ft | 125 kts | 101° |
| 2026-05-06 22:22 | -5.76635 | -35.38797 | 479 ft | 128 kts | 101° |
| 2026-05-06 22:22 | -5.76774 | -35.37938 | 320 ft | 123 kts | 100° |
| 2026-05-06 22:22 | -5.76902 | -35.37164 | 290 ft | 87 kts | 101° |
| 2026-05-06 22:22 | -5.76966 | -35.36773 | 290 ft | 33 kts | 99° |
| 2026-05-06 22:23 | -5.76967 | -35.36561 | 290 ft | 26 kts | 73° |
| 2026-05-06 22:23 | -5.76921 | -35.36455 | 290 ft | 14 kts | 61° |
| 2026-05-06 22:23 | -5.76847 | -35.36447 | 290 ft | 14 kts | 289° |
| 2026-05-06 22:23 | -5.76828 | -35.36553 | 290 ft | 16 kts | 279° |
| 2026-05-06 22:24 | -5.76809 | -35.36670 | 290 ft | 17 kts | 279° |
| 2026-05-06 22:24 | -5.76790 | -35.36796 | 290 ft | 17 kts | 280° |
| 2026-05-06 22:24 | -5.76743 | -35.36851 | 290 ft | 10 kts | 353° |
| 2026-05-06 22:24 | -5.76663 | -35.36840 | 290 ft | 12 kts | 9° |
| 2026-05-06 22:25 | -5.76575 | -35.36850 | 290 ft | 12 kts | 5° |
| 2026-05-06 22:25 | -5.76530 | -35.36842 | 290 ft | 4 kts | 10° |
| 2026-05-06 22:25 | -5.76507 | -35.36838 | 290 ft | 2 kts | 10° |
| 2026-05-06 22:25 | -5.76506 | -35.36838 | 290 ft | 0 kts | 10° |